Baileyville, Illinois
Current Conditions -  °F | °C
As of 9:35 PM on Sunday 21 Dec 2014 (Local Time) from KFEP Reporting Station
Overcast Overcast  
Wind Chill: 23°   Ceiling: 4000
Heat Index: 34°   Visibility: 10mi
Dew Point: 30°   Wind: 17mph
Humidity: 86%   Direction: 150°SSE
Pressure: 29.99"   Gusts: 22mph
Location:  42.2°N, 89.59°W
Report Text: KFEP 220335Z AUTO 15015G19KT 10SM SCT033 OVC040 01/M01 A2999 RMK AO2 T00111010
Loading
Personal Weather Stations






























Interactive Weather Map New forecast layout! Learn more

10-Day Weather Forecast

Advertisements
Track Severe Weather on mobile